Time;durP1;ratioP1;P1;durP2;ratioP2;P2;SDS_P1;SDS_P2;PMS_P1;PMS_P2;Temp;Humidity;BMP_temperature;BMP_pressure;BME280_temperature;BME280_humidity;BME280_pressure;Samples;Min_cycle;Max_cycle;Signal;HPM_P1;HPM_P2
2021/01/30 00:04:16;;;;;;;13.35;7.43;;;;;;;6.96;100.00;99386.38;10267996;28;20044;-73
2021/01/30 00:09:19;;;;;;;11.57;6.45;;;;;;;6.91;100.00;99380.53;10254910;29;20043;-73
2021/01/30 00:14:34;;;;;;;15.73;7.93;;;;;;;6.84;100.00;99384.38;10237085;29;20055;-73
2021/01/30 00:19:36;;;;;;;10.75;7.53;;;;;;;6.85;100.00;99388.69;10237540;29;20130;-73
2021/01/30 00:24:46;;;;;;;12.75;6.80;;;;;;;6.75;100.00;99382.19;10277588;28;20067;-73
2021/01/30 00:29:49;;;;;;;11.48;7.28;;;;;;;6.69;100.00;99380.72;10248610;28;20042;-73
2021/01/30 00:34:50;;;;;;;10.48;6.78;;;;;;;6.59;100.00;99374.25;10236956;29;20059;-73
2021/01/30 00:39:53;;;;;;;13.10;7.57;;;;;;;6.60;100.00;99381.16;10252389;28;20065;-72
2021/01/30 00:44:55;;;;;;;11.60;8.35;;;;;;;6.63;100.00;99383.63;10253067;29;20043;-72
2021/01/30 00:49:56;;;;;;;14.05;8.52;;;;;;;6.63;100.00;99391.47;10253414;28;20047;-72
2021/01/30 00:54:57;;;;;;;14.93;8.82;;;;;;;6.56;100.00;99382.22;10235996;29;20052;-73
2021/01/30 00:59:59;;;;;;;11.60;8.77;;;;;;;6.40;100.00;99360.31;10255394;28;20043;-73
2021/01/30 01:05:00;;;;;;;18.38;10.68;;;;;;;6.55;100.00;99374.44;10253147;28;20047;-73
2021/01/30 01:10:01;;;;;;;16.42;9.95;;;;;;;6.55;100.00;99363.97;10252250;28;20047;-73
2021/01/30 01:15:06;;;;;;;13.40;9.77;;;;;;;6.42;100.00;99379.41;10248596;28;20142;-73
2021/01/30 01:20:11;;;;;;;14.07;8.57;;;;;;;6.35;100.00;99389.31;10244208;28;20460;-73
2021/01/30 01:25:13;;;;;;;13.90;9.15;;;;;;;6.19;100.00;99382.25;10262519;28;20047;-73
2021/01/30 01:30:16;;;;;;;11.68;7.63;;;;;;;6.07;100.00;99386.28;10251570;28;20043;-73
2021/01/30 01:35:24;;;;;;;9.77;7.45;;;;;;;5.88;100.00;99367.09;10252785;29;20480;-73
2021/01/30 01:40:35;;;;;;;10.75;6.93;;;;;;;5.90;100.00;99380.94;10289663;28;20054;-73
2021/01/30 01:45:37;;;;;;;12.25;7.78;;;;;;;5.77;100.00;99369.31;10290729;28;20389;-73
2021/01/30 01:50:50;;;;;;;13.63;7.88;;;;;;;5.62;100.00;99383.88;10264730;28;20479;-73
2021/01/30 01:55:56;;;;;;;11.50;7.60;;;;;;;5.54;100.00;99378.16;10283265;28;20479;-73
2021/01/30 02:00:57;;;;;;;11.55;7.57;;;;;;;5.51;100.00;99375.69;10289009;28;20043;-73
2021/01/30 02:06:03;;;;;;;11.57;6.82;;;;;;;5.49;100.00;99386.19;10285733;28;20399;-73
2021/01/30 02:11:04;;;;;;;15.90;10.65;;;;;;;5.31;100.00;99384.38;10259007;29;20517;-73
2021/01/30 02:16:23;;;;;;;24.35;16.55;;;;;;;4.73;100.00;99376.34;10262243;28;20047;-73
2021/01/30 02:22:02;;;;;;;24.20;16.90;;;;;;;4.40;100.00;99368.09;10241181;29;20050;-73
2021/01/30 02:27:22;;;;;;;22.90;15.48;;;;;;;4.15;100.00;99359.50;10241097;28;20070;-73
2021/01/30 02:33:01;;;;;;;28.95;19.08;;;;;;;4.00;100.00;99360.94;10257647;29;20054;-73
2021/01/30 02:38:11;;;;;;;23.50;17.25;;;;;;;3.92;100.00;99362.16;10257352;28;20058;-73
2021/01/30 02:43:24;;;;;;;28.92;18.73;;;;;;;3.74;100.00;99361.06;10240967;29;20051;-73
2021/01/30 02:48:30;;;;;;;23.23;15.75;;;;;;;3.69;100.00;99355.16;10241020;29;20070;-73
2021/01/30 02:53:39;;;;;;;23.13;15.80;;;;;;;3.60;100.00;99358.94;10260943;28;20044;-73
2021/01/30 02:58:49;;;;;;;28.65;17.35;;;;;;;3.40;100.00;99351.84;10257574;29;20046;-73
2021/01/30 03:04:00;;;;;;;24.67;14.93;;;;;;;3.25;100.00;99365.41;10256779;28;20043;-73
2021/01/30 03:09:19;;;;;;;19.48;14.20;;;;;;;3.27;100.00;99378.34;10239828;29;20559;-73
2021/01/30 03:14:23;;;;;;;18.75;14.50;;;;;;;3.16;100.00;99381.34;10274558;28;20403;-73
2021/01/30 03:19:29;;;;;;;20.70;12.75;;;;;;;2.95;100.00;99367.28;10271091;28;20042;-73
2021/01/30 03:24:32;;;;;;;19.50;13.50;;;;;;;2.92;100.00;99369.16;10296046;28;20053;-73
2021/01/30 03:29:33;;;;;;;17.38;12.38;;;;;;;2.81;100.00;99374.69;10273895;28;20053;-73
2021/01/30 03:34:35;;;;;;;14.25;12.25;;;;;;;2.76;100.00;99373.16;10256356;29;20043;-73
2021/01/30 03:39:36;;;;;;;17.20;12.63;;;;;;;2.75;100.00;99379.25;10255582;28;20062;-73
2021/01/30 03:44:38;;;;;;;17.88;12.88;;;;;;;2.73;100.00;99370.63;10254684;29;20043;-73
2021/01/30 03:49:39;;;;;;;16.35;12.85;;;;;;;2.91;100.00;99381.31;10239061;28;20101;-73
2021/01/30 03:54:40;;;;;;;15.40;11.73;;;;;;;2.86;100.00;99390.97;10295021;28;20039;-73
2021/01/30 03:59:41;;;;;;;16.77;11.98;;;;;;;2.71;100.00;99382.84;10294866;28;20403;-73
2021/01/30 04:04:46;;;;;;;15.95;11.82;;;;;;;2.47;100.00;99374.06;10296160;28;20046;-73
2021/01/30 04:09:48;;;;;;;14.30;11.57;;;;;;;2.41;100.00;99364.72;10257550;28;20051;-73
2021/01/30 04:14:49;;;;;;;22.10;16.38;;;;;;;2.31;100.00;99354.66;10255564;28;20050;-73
2021/01/30 04:19:50;;;;;;;19.73;16.17;;;;;;;2.09;100.00;99341.47;10254393;29;20051;-73
2021/01/30 04:24:51;;;;;;;24.05;16.25;;;;;;;2.10;100.00;99359.59;10254074;29;20047;-73
2021/01/30 04:29:52;;;;;;;28.42;21.05;;;;;;;2.12;100.00;99355.19;10254452;28;20043;-73
2021/01/30 04:34:54;;;;;;;31.48;23.63;;;;;;;2.13;100.00;99354.31;10254911;29;20031;-73
2021/01/30 04:39:55;;;;;;;35.05;26.23;;;;;;;2.03;100.00;99352.03;10236298;29;20047;-73
2021/01/30 04:45:11;;;;;;;38.42;26.98;;;;;;;2.11;100.00;99360.44;10254198;29;20050;-73
2021/01/30 04:50:33;;;;;;;38.08;26.95;;;;;;;2.03;100.00;99354.63;10255616;28;20039;-73
2021/01/30 04:55:35;;;;;;;26.10;19.00;;;;;;;1.88;100.00;99353.34;10273609;28;20792;-73
2021/01/30 05:01:11;;;;;;;20.60;15.52;;;;;;;1.81;100.00;99362.19;10288091;28;20485;-73
2021/01/30 05:06:21;;;;;;;20.08;15.73;;;;;;;1.76;100.00;99354.53;10266863;28;20047;-73
2021/01/30 05:11:26;;;;;;;23.45;17.98;;;;;;;1.79;100.00;99362.25;10246707;28;20464;-73
2021/01/30 05:16:33;;;;;;;27.52;21.05;;;;;;;1.65;100.00;99351.41;10276068;28;20494;-74
2021/01/30 05:21:42;;;;;;;30.88;22.98;;;;;;;1.61;100.00;99344.59;10257218;29;20040;-73
2021/01/30 05:27:16;;;;;;;30.65;21.27;;;;;;;1.47;100.00;99341.53;10266135;28;20406;-73
2021/01/30 05:32:26;;;;;;;28.73;20.92;;;;;;;1.57;100.00;99355.97;10263251;29;20047;-73
2021/01/30 05:38:01;;;;;;;26.05;19.63;;;;;;;1.58;100.00;99365.44;10242920;29;20106;-73
2021/01/30 05:43:11;;;;;;;28.02;21.02;;;;;;;1.72;100.00;99371.09;10259557;29;20050;-73
2021/01/30 05:48:17;;;;;;;28.48;21.55;;;;;;;1.48;100.00;99362.25;10260354;28;20488;-73
2021/01/30 05:53:22;;;;;;;28.27;22.13;;;;;;;1.49;100.00;99347.53;10243378;29;20054;-73
2021/01/30 05:58:26;;;;;;;30.35;23.42;;;;;;;1.54;100.00;99348.25;10292089;28;20131;-73
2021/01/30 06:03:27;;;;;;;29.10;22.30;;;;;;;1.47;100.00;99334.59;10260106;28;20372;-73
2021/01/30 06:08:30;;;;;;;28.35;22.45;;;;;;;1.40;100.00;99335.66;10259054;29;20444;-73
2021/01/30 06:13:32;;;;;;;26.65;21.25;;;;;;;1.41;100.00;99359.88;10242142;29;20047;-73
2021/01/30 06:18:36;;;;;;;24.75;19.70;;;;;;;1.52;100.00;99373.38;10241795;29;20063;-73
2021/01/30 06:23:39;;;;;;;28.13;20.38;;;;;;;1.48;100.00;99370.03;10241940;29;20051;-73
2021/01/30 06:28:45;;;;;;;26.67;21.50;;;;;;;1.48;100.00;99366.59;10258221;28;20498;-73
2021/01/30 06:33:51;;;;;;;25.45;21.15;;;;;;;1.46;100.00;99358.00;10259362;29;20047;-73
2021/01/30 06:38:58;;;;;;;27.60;21.55;;;;;;;1.47;100.00;99368.34;10256598;28;20055;-73
2021/01/30 06:44:15;;;;;;;23.70;20.33;;;;;;;1.46;100.00;99355.41;10257966;29;20043;-73
2021/01/30 06:49:18;;;;;;;24.40;20.10;;;;;;;1.29;100.00;99358.44;10258630;29;20051;-73
2021/01/30 06:54:21;;;;;;;23.90;19.23;;;;;;;1.32;100.00;99345.41;10290582;28;20037;-73
2021/01/30 06:59:26;;;;;;;21.50;18.33;;;;;;;1.32;100.00;99360.97;10257037;29;20403;-73
2021/01/30 07:04:27;;;;;;;23.13;19.58;;;;;;;1.29;100.00;99366.22;10241749;28;20397;-73
2021/01/30 07:09:44;;;;;;;25.77;20.38;;;;;;;1.19;100.00;99369.94;10288632;28;20046;-73
2021/01/30 07:15:26;;;;;;;27.30;20.33;;;;;;;1.06;100.00;99356.47;10297003;28;20126;-73
2021/01/30 07:21:01;;;;;;;31.08;22.10;;;;;;;0.96;100.00;99346.38;10197171;29;20070;-73
2021/01/30 07:26:15;;;;;;;30.38;22.70;;;;;;;1.03;100.00;99361.72;10251299;28;20042;-72
2021/01/30 07:31:31;;;;;;;33.17;24.73;;;;;;;1.01;100.00;99355.72;10250174;28;20050;-73
2021/01/30 07:36:53;;;;;;;36.45;26.27;;;;;;;0.92;100.00;99342.16;10217073;29;20048;-73
2021/01/30 07:42:01;;;;;;;40.55;27.60;;;;;;;0.87;100.00;99344.84;10216442;29;20070;-73
2021/01/30 07:47:21;;;;;;;40.45;28.23;;;;;;;0.96;100.00;99355.00;10245380;28;20050;-72
2021/01/30 07:52:33;;;;;;;37.90;26.73;;;;;;;0.89;100.00;99350.84;10242475;28;20142;-73
2021/01/30 07:57:58;;;;;;;38.28;26.35;;;;;;;0.96;100.00;99347.22;10285040;28;20398;-73
2021/01/30 08:03:14;;;;;;;36.28;25.67;;;;;;;0.92;100.00;99342.16;10222665;28;20050;-72
2021/01/30 08:08:25;;;;;;;37.40;25.25;;;;;;;0.98;100.00;99353.22;10254333;29;20050;-72
2021/01/30 08:13:57;;;;;;;30.70;22.45;;;;;;;0.93;100.00;99326.53;10254081;29;20130;-72
2021/01/30 08:19:12;;;;;;;26.05;20.20;;;;;;;0.83;100.00;99317.31;10254630;28;20496;-73
2021/01/30 08:24:25;;;;;;;29.40;19.77;;;;;;;1.21;100.00;99359.53;10253762;28;20043;-67
2021/01/30 08:29:36;;;;;;;27.45;20.33;;;;;;;1.17;100.00;99350.16;10253308;28;20058;-73
2021/01/30 08:34:37;;;;;;;24.95;19.05;;;;;;;0.97;100.00;99337.69;10254335;29;20050;-73
2021/01/30 08:40:12;;;;;;;22.70;18.05;;;;;;;1.07;100.00;99339.16;10265484;28;20067;-73
2021/01/30 08:45:13;;;;;;;23.88;19.25;;;;;;;1.10;100.00;99341.66;10294200;28;20042;-73
2021/01/30 08:50:30;;;;;;;24.30;19.42;;;;;;;1.09;100.00;99329.56;10252220;28;20043;-73
2021/01/30 08:55:50;;;;;;;30.33;22.52;;;;;;;0.94;100.00;99317.03;10224738;29;20071;-74
2021/01/30 09:00:53;;;;;;;96.90;68.78;;;;;;;0.89;100.00;99311.13;10237511;28;20036;-74
2021/01/30 09:05:54;;;;;;;38.47;30.63;;;;;;;0.88;100.00;99315.44;10265394;28;20038;-74
2021/01/30 09:11:33;;;;;;;23.10;20.38;;;;;;;1.07;100.00;99332.25;10275729;28;20483;-73
2021/01/30 09:16:57;;;;;;;28.48;22.85;;;;;;;1.12;100.00;99332.97;10283728;28;20079;-74
2021/01/30 09:22:11;;;;;;;24.45;18.20;;;;;;;1.20;100.00;99332.75;10206443;29;20115;-75
2021/01/30 09:27:17;;;;;;;22.02;17.27;;;;;;;1.12;100.00;99316.53;10223343;28;20502;-75
2021/01/30 09:32:26;;;;;;;24.45;17.23;;;;;;;1.21;100.00;99323.22;10252914;29;20047;-74
2021/01/30 09:37:37;;;;;;;19.52;16.13;;;;;;;1.15;100.00;99332.03;10252907;28;20035;-74
2021/01/30 09:42:38;;;;;;;19.83;16.88;;;;;;;1.20;100.00;99322.38;10253097;29;20047;-74
2021/01/30 09:47:45;;;;;;;20.13;15.38;;;;;;;1.36;100.00;99334.03;10235476;29;20048;-74
2021/01/30 09:52:53;;;;;;;19.77;14.48;;;;;;;1.42;100.00;99333.84;10249252;28;20051;-74
2021/01/30 09:58:11;;;;;;;21.05;16.98;;;;;;;1.30;100.00;99317.78;10251861;29;20123;-74
2021/01/30 10:03:21;;;;;;;18.90;15.27;;;;;;;1.31;100.00;99316.91;10235340;29;20047;-75
2021/01/30 10:08:29;;;;;;;17.88;14.27;;;;;;;1.39;100.00;99307.16;10253146;29;20047;-75
2021/01/30 10:13:31;;;;;;;15.40;13.30;;;;;;;1.56;100.00;99319.66;10240812;29;20050;-74
2021/01/30 10:18:35;;;;;;;17.77;14.77;;;;;;;1.65;100.00;99324.59;10259437;28;20058;-74
2021/01/30 10:23:44;;;;;;;15.93;13.35;;;;;;;1.61;100.00;99307.41;10242306;29;20057;-72
2021/01/30 10:28:51;;;;;;;14.57;12.40;;;;;;;1.65;100.00;99311.63;10241335;28;20485;-74
2021/01/30 10:33:58;;;;;;;13.38;10.48;;;;;;;1.79;100.00;99310.31;10258113;29;20503;-73
2021/01/30 10:39:01;;;;;;;13.13;10.43;;;;;;;1.73;100.00;99300.13;10258628;28;20059;-73
2021/01/30 10:44:04;;;;;;;11.82;10.52;;;;;;;1.92;100.00;99319.41;10258921;29;20048;-72
2021/01/30 10:49:31;;;;;;;10.48;8.82;;;;;;;1.76;100.00;99287.03;10258800;28;20102;-73
2021/01/30 10:54:32;;;;;;;;;;;;;;;1.81;100.00;99294.69;10299100;28;20045;-69
2021/01/30 10:59:45;;;;;;;10.23;8.88;;;;;;;1.81;100.00;99269.59;10297359;28;19926;-72
2021/01/30 11:05:08;;;;;;;10.45;9.35;;;;;;;2.04;100.00;99284.44;10268242;28;20055;-72
2021/01/30 11:10:21;;;;;;;11.18;9.48;;;;;;;2.03;100.00;99271.50;10257814;29;20472;-72
2021/01/30 11:15:24;;;;;;;10.85;8.88;;;;;;;1.97;100.00;99263.91;10240796;29;20491;-72
2021/01/30 11:20:39;;;;;;;10.77;9.68;;;;;;;2.00;100.00;99262.09;10252299;28;20047;-73
2021/01/30 11:25:41;;;;;;;9.83;8.83;;;;;;;2.03;100.00;99266.31;10284859;28;20081;-72
2021/01/30 11:30:44;;;;;;;10.50;9.20;;;;;;;2.09;100.00;99258.34;10263504;28;20522;-73
2021/01/30 11:35:52;;;;;;;12.95;11.65;;;;;;;2.29;100.00;99271.53;10239455;29;20047;-73
2021/01/30 11:40:56;;;;;;;189.63;130.57;;;;;;;2.43;100.00;99261.53;10252390;28;20077;-73
2021/01/30 11:45:57;;;;;;;76.80;70.22;;;;;;;2.42;100.00;99252.06;10253648;28;20051;-73
2021/01/30 11:51:00;;;;;;;345.63;274.75;;;;;;;2.43;100.00;99232.94;10238736;28;20039;-73
2021/01/30 11:56:02;;;;;;;160.90;146.23;;;;;;;2.32;100.00;99211.69;10280944;28;20055;-73
2021/01/30 12:01:03;;;;;;;24.10;22.33;;;;;;;2.70;100.00;99238.13;10295020;28;20043;-73
2021/01/30 12:06:05;;;;;;;11.80;10.45;;;;;;;2.68;100.00;99222.56;10277763;28;20566;-73
2021/01/30 12:11:07;;;;;;;16.20;14.57;;;;;;;2.80;100.00;99229.97;10281879;28;20083;-73
2021/01/30 12:16:08;;;;;;;88.60;78.75;;;;;;;2.74;100.00;99214.56;10254476;28;20035;-73
2021/01/30 12:21:10;;;;;;;171.55;156.32;;;;;;;2.58;100.00;99193.47;10279466;28;20125;-73
2021/01/30 12:26:17;;;;;;;51.70;47.95;;;;;;;2.82;100.00;99203.91;10294529;28;20049;-73
2021/01/30 12:31:19;;;;;;;25.73;17.52;;;;;;;2.82;100.00;99186.56;10259196;28;20043;-73
2021/01/30 12:36:20;;;;;;;15.15;11.25;;;;;;;3.05;100.00;99196.13;10253217;28;20126;-73
2021/01/30 12:41:21;;;;;;;26.13;20.05;;;;;;;3.12;100.00;99183.72;10255436;28;20051;-73
2021/01/30 12:46:22;;;;;;;12.15;10.63;;;;;;;3.38;100.00;99201.84;10240005;28;20047;-73
2021/01/30 12:51:24;;;;;;;264.85;212.88;;;;;;;3.40;100.00;99193.06;10263958;28;20042;-73
2021/01/30 12:56:25;;;;;;;178.55;162.43;;;;;;;3.18;100.00;99158.31;10266462;28;20055;-73
2021/01/30 13:01:26;;;;;;;16.40;15.07;;;;;;;3.42;100.00;99165.22;10276639;28;20050;-73
2021/01/30 13:06:28;;;;;;;10.50;9.25;;;;;;;3.29;100.00;99148.38;10286040;28;20055;-73
2021/01/30 13:11:30;;;;;;;10.27;8.40;;;;;;;3.26;100.00;99152.84;10268984;28;20134;-73
2021/01/30 13:16:31;;;;;;;23.85;17.80;;;;;;;3.27;100.00;99150.16;10236769;29;20599;-73
2021/01/30 13:21:32;;;;;;;13.32;11.50;;;;;;;3.21;100.00;99152.16;10252884;29;20036;-73
2021/01/30 13:26:40;;;;;;;10.60;9.40;;;;;;;3.04;100.00;99129.38;10253583;29;20047;-74
2021/01/30 13:31:42;;;;;;;26.08;18.98;;;;;;;3.15;100.00;99140.25;10252431;28;20043;-67
2021/01/30 13:36:44;;;;;;;54.38;41.58;;;;;;;3.08;100.00;99124.91;10252163;29;20436;-74
2021/01/30 13:41:46;;;;;;;1478.20;818.92;;;;;;;3.10;100.00;99141.34;10253454;28;20074;-73
2021/01/30 13:46:48;;;;;;;154.93;138.38;;;;;;;3.02;100.00;99129.44;10264442;28;20047;-73
2021/01/30 13:51:49;;;;;;;24.88;22.70;;;;;;;2.94;100.00;99100.25;10277354;28;20137;-73
2021/01/30 13:56:51;;;;;;;11.68;8.55;;;;;;;3.01;100.00;99119.94;10299873;28;20051;-73
2021/01/30 14:01:52;;;;;;;12.65;10.90;;;;;;;2.93;100.00;99113.34;10299453;28;20047;-73
2021/01/30 14:06:53;;;;;;;7.72;6.28;;;;;;;2.88;100.00;99105.69;10286403;28;20047;-73
2021/01/30 14:11:54;;;;;;;6.93;5.55;;;;;;;2.85;100.00;99105.78;10258268;29;20043;-73
2021/01/30 14:16:56;;;;;;;6.25;5.05;;;;;;;2.88;100.00;99125.66;10254605;28;20121;-73
2021/01/30 14:21:57;;;;;;;210.65;131.52;;;;;;;2.72;100.00;99117.56;10234437;28;20714;-74
2021/01/30 14:26:58;;;;;;;8.40;6.78;;;;;;;2.78;100.00;99116.47;10247682;28;20476;-73
2021/01/30 14:32:01;;;;;;;7.90;6.03;;;;;;;2.73;100.00;99116.66;10256940;29;20395;-73
2021/01/30 14:37:02;;;;;;;6.55;4.97;;;;;;;2.76;100.00;99120.91;10216675;29;20043;-74
2021/01/30 14:42:03;;;;;;;7.00;5.28;;;;;;;2.96;100.00;99140.06;10232179;29;20061;-71
2021/01/30 14:47:05;;;;;;;6.18;4.88;;;;;;;2.86;100.00;99117.06;10282575;28;20063;-73
2021/01/30 14:52:06;;;;;;;10.35;6.18;;;;;;;2.92;100.00;99120.31;10259387;28;20046;-74
2021/01/30 14:57:07;;;;;;;190.93;159.95;;;;;;;2.89;99.05;99109.16;10235753;28;20476;-74
2021/01/30 15:02:08;;;;;;;80.25;73.72;;;;;;;2.86;98.69;99102.28;10255619;29;20495;-73
2021/01/30 15:07:10;;;;;;;6.97;5.28;;;;;;;2.74;97.32;99086.31;10258484;28;20082;-75
2021/01/30 15:12:11;;;;;;;5.18;3.60;;;;;;;2.63;96.25;99076.31;10296312;28;20038;-74
2021/01/30 15:17:12;;;;;;;5.78;4.43;;;;;;;2.64;97.08;99098.81;10281748;28;20043;-74
2021/01/30 15:22:15;;;;;;;5.25;3.38;;;;;;;2.62;96.54;99093.66;10254502;29;20055;-74
2021/01/30 15:27:21;;;;;;;7.82;3.90;;;;;;;2.69;96.61;99107.28;10269763;28;20396;-75
2021/01/30 15:32:29;;;;;;;5.57;3.38;;;;;;;2.61;97.49;99101.50;10254877;28;20117;-74
2021/01/30 15:37:30;;;;;;;485.63;364.17;;;;;;;2.57;98.23;99097.34;10237688;29;20122;-75
2021/01/30 15:42:31;;;;;;;105.78;88.63;;;;;;;2.50;97.52;99090.66;10255410;29;20065;-76
2021/01/30 15:47:33;;;;;;;21.08;19.08;;;;;;;2.52;97.75;99096.63;10270946;28;20419;-76
2021/01/30 15:52:34;;;;;;;6.20;5.32;;;;;;;2.57;96.24;99107.72;10270911;28;20126;-76
2021/01/30 15:57:35;;;;;;;9.27;8.00;;;;;;;2.62;96.62;99098.00;10254259;28;20054;-76
2021/01/30 16:02:37;;;;;;;5.13;3.83;;;;;;;2.66;95.99;99091.81;10242544;29;20049;-77
2021/01/30 16:07:38;;;;;;;5.15;3.60;;;;;;;2.58;94.79;99092.09;10236666;28;20047;-75
2021/01/30 16:12:42;;;;;;;6.95;4.13;;;;;;;2.58;93.99;99099.03;10255165;29;20047;-75
2021/01/30 16:17:43;;;;;;;4.17;2.80;;;;;;;2.59;94.72;99111.97;10253561;28;20439;-76
2021/01/30 16:22:45;;;;;;;8.93;3.47;;;;;;;2.55;95.10;99096.53;10236573;29;20044;-75
2021/01/30 16:27:46;;;;;;;8.40;3.55;;;;;;;2.86;96.93;99146.50;10238145;28;20488;-75
2021/01/30 16:32:49;;;;;;;5.00;3.50;;;;;;;2.70;95.18;99132.38;10235527;29;20043;-75
2021/01/30 16:37:51;;;;;;;3.90;3.03;;;;;;;2.61;94.20;99117.09;10253621;28;20039;-75
2021/01/30 16:42:52;;;;;;;4.40;2.45;;;;;;;2.60;93.61;99126.66;10242305;28;20120;-75
2021/01/30 16:47:53;;;;;;;6.13;3.97;;;;;;;2.53;93.74;99122.56;10240119;28;20125;-75
2021/01/30 16:52:55;;;;;;;4.75;3.50;;;;;;;2.57;93.98;99139.78;10293379;28;20043;-75
2021/01/30 16:57:56;;;;;;;5.05;2.92;;;;;;;2.56;93.68;99148.47;10266737;28;20118;-75
2021/01/30 17:02:59;;;;;;;5.32;3.60;;;;;;;2.42;94.89;99136.88;10276638;28;20053;-75
2021/01/30 17:08:00;;;;;;;4.70;3.75;;;;;;;2.46;94.69;99149.69;10255022;28;20039;-75
2021/01/30 17:13:13;;;;;;;4.10;3.03;;;;;;;2.43;94.39;99160.19;10253445;29;20680;-75
2021/01/30 17:18:14;;;;;;;5.53;3.55;;;;;;;2.46;95.33;99173.06;10252758;28;20043;-75
2021/01/30 17:23:16;;;;;;;5.85;3.80;;;;;;;2.45;96.80;99179.16;10242614;29;20039;-75
2021/01/30 17:28:18;;;;;;;6.75;3.83;;;;;;;2.39;97.02;99165.53;10261178;28;20050;-76
2021/01/30 17:33:19;;;;;;;5.25;3.83;;;;;;;2.36;96.73;99174.28;10260740;29;20054;-75
2021/01/30 17:38:20;;;;;;;6.60;4.55;;;;;;;2.28;96.91;99176.28;10280298;28;20390;-75
2021/01/30 17:43:21;;;;;;;6.32;4.45;;;;;;;2.32;97.28;99193.50;10300784;28;20050;-75
2021/01/30 17:48:23;;;;;;;5.35;3.50;;;;;;;2.30;97.33;99190.09;10280159;28;20070;-75
2021/01/30 17:53:25;;;;;;;11.90;7.80;;;;;;;2.36;96.53;99208.06;10273353;28;20039;-75
2021/01/30 17:58:26;;;;;;;46.42;26.95;;;;;;;2.36;96.70;99217.59;10243695;29;20111;-75
2021/01/30 18:03:28;;;;;;;5.22;3.53;;;;;;;2.23;97.18;99204.19;10241777;29;20385;-75
2021/01/30 18:08:29;;;;;;;7.90;5.97;;;;;;;2.27;97.87;99213.56;10259889;29;20051;-74
2021/01/30 18:13:31;;;;;;;5.10;4.07;;;;;;;2.26;97.41;99230.06;10259261;29;20051;-74
2021/01/30 18:18:32;;;;;;;4.53;3.58;;;;;;;2.20;98.17;99223.31;10259424;28;20043;-75
2021/01/30 18:23:33;;;;;;;5.80;4.03;;;;;;;2.11;97.91;99210.63;10258209;29;20043;-74
2021/01/30 18:28:34;;;;;;;6.22;3.95;;;;;;;2.19;97.09;99237.19;10258784;28;20074;-75
2021/01/30 18:33:35;;;;;;;6.28;4.05;;;;;;;2.22;96.54;99244.91;10258929;28;20055;-74
2021/01/30 18:38:36;;;;;;;7.20;4.40;;;;;;;2.20;96.75;99230.25;10297636;28;20085;-74
2021/01/30 18:43:38;;;;;;;29.63;15.07;;;;;;;2.12;96.97;99238.31;10241425;29;20051;-75
2021/01/30 18:48:40;;;;;;;39.30;16.80;;;;;;;2.10;97.73;99242.69;10245537;28;20054;-75
2021/01/30 18:53:41;;;;;;;24.08;13.63;;;;;;;2.05;97.34;99243.75;10258133;29;20057;-74
2021/01/30 18:58:42;;;;;;;24.05;15.05;;;;;;;2.11;97.63;99254.78;10256940;29;20051;-75
2021/01/30 19:03:43;;;;;;;18.05;11.55;;;;;;;1.99;97.69;99242.19;10239724;29;20047;-74
2021/01/30 19:08:44;;;;;;;19.00;12.85;;;;;;;2.13;97.18;99270.31;10239899;29;20074;-74
2021/01/30 19:13:45;;;;;;;61.47;36.85;;;;;;;2.03;99.02;99267.16;10257742;29;20051;-74
2021/01/30 19:18:47;;;;;;;13.25;8.98;;;;;;;2.05;99.75;99262.78;10239481;29;20071;-75
2021/01/30 19:23:48;;;;;;;213.20;148.85;;;;;;;2.00;100.00;99269.03;10267969;28;20050;-75
2021/01/30 19:28:50;;;;;;;72.75;64.90;;;;;;;2.04;100.00;99281.00;10263630;28;20052;-75
2021/01/30 19:33:52;;;;;;;11.07;9.43;;;;;;;1.94;100.00;99276.97;10257193;29;20047;-75
2021/01/30 19:38:53;;;;;;;29.70;26.65;;;;;;;1.85;100.00;99272.91;10255830;29;20134;-75
2021/01/30 19:43:54;;;;;;;16.55;14.45;;;;;;;1.86;100.00;99272.88;10255080;28;20047;-75
2021/01/30 19:48:55;;;;;;;18.40;14.88;;;;;;;1.85;100.00;99281.56;10264040;28;20043;-75
2021/01/30 19:53:57;;;;;;;466.70;357.58;;;;;;;1.66;100.00;99264.00;10277277;28;20362;-75
2021/01/30 19:58:58;;;;;;;113.57;95.30;;;;;;;1.66;100.00;99284.78;10256224;29;20078;-75
2021/01/30 20:04:00;;;;;;;40.05;35.83;;;;;;;1.63;100.00;99296.09;10254669;29;20046;-75
2021/01/30 20:09:01;;;;;;;16.55;13.40;;;;;;;1.63;100.00;99308.22;10255319;29;20043;-75
2021/01/30 20:14:02;;;;;;;8.85;7.78;;;;;;;1.56;100.00;99306.69;10253792;29;20047;-75
2021/01/30 20:19:04;;;;;;;14.20;10.85;;;;;;;1.59;100.00;99322.19;10208038;28;20054;-74
2021/01/30 20:24:05;;;;;;;9.23;7.93;;;;;;;1.51;100.00;99314.59;10241582;28;20042;-75
2021/01/30 20:29:07;;;;;;;20.10;18.13;;;;;;;1.59;100.00;99327.38;10238795;28;20051;-75
2021/01/30 20:34:08;;;;;;;8.60;7.72;;;;;;;1.48;100.00;99310.34;10234335;28;20523;-74
2021/01/30 20:39:11;;;;;;;455.33;408.52;;;;;;;1.51;100.00;99317.19;10217455;29;20055;-75
2021/01/30 20:44:12;;;;;;;575.75;504.08;;;;;;;1.36;100.00;99299.44;10238013;29;20041;-75
2021/01/30 20:49:13;;;;;;;208.40;187.98;;;;;;;1.48;100.00;99323.31;10281774;28;20495;-75
2021/01/30 20:54:14;;;;;;;17.30;15.63;;;;;;;1.41;100.00;99318.34;10294792;28;20065;-75
2021/01/30 20:59:15;;;;;;;7.25;5.43;;;;;;;1.40;100.00;99322.69;10281236;28;20043;-75
2021/01/30 21:04:18;;;;;;;8.32;6.25;;;;;;;1.49;100.00;99337.16;10254277;29;20048;-75
2021/01/30 21:09:20;;;;;;;11.52;10.00;;;;;;;1.33;100.00;99323.75;10252714;29;20495;-75
2021/01/30 21:14:22;;;;;;;612.05;508.00;;;;;;;1.39;100.00;99348.69;10253892;29;20050;-75
2021/01/30 21:19:23;;;;;;;461.42;371.02;;;;;;;1.27;100.00;99330.84;10253494;28;20051;-75
2021/01/30 21:24:24;;;;;;;231.13;208.60;;;;;;;1.41;100.00;99352.94;10252905;29;20039;-75
2021/01/30 21:29:25;;;;;;;20.75;18.55;;;;;;;1.29;100.00;99327.31;10235553;28;20062;-74
2021/01/30 21:34:27;;;;;;;16.27;13.88;;;;;;;1.30;100.00;99334.22;10280186;28;20043;-74
2021/01/30 21:39:28;;;;;;;10.38;8.43;;;;;;;1.15;100.00;99316.47;10254244;28;20063;-75
2021/01/30 21:44:30;;;;;;;22.65;20.25;;;;;;;1.27;100.00;99343.81;10235110;29;20043;-75
2021/01/30 21:49:31;;;;;;;16.60;14.82;;;;;;;1.28;100.00;99356.75;10267550;28;20126;-75
2021/01/30 21:54:32;;;;;;;16.35;12.80;;;;;;;1.24;100.00;99359.47;10252622;29;20496;-75
2021/01/30 21:59:33;;;;;;;27.00;23.80;;;;;;;1.27;100.00;99365.41;10235270;29;20074;-75
2021/01/30 22:04:37;;;;;;;13.05;11.68;;;;;;;1.19;100.00;99353.53;10251981;29;20102;-75
2021/01/30 22:09:38;;;;;;;14.88;11.88;;;;;;;1.12;100.00;99358.88;10258643;28;20055;-75
2021/01/30 22:14:39;;;;;;;11.07;8.57;;;;;;;1.08;100.00;99348.66;10260618;29;20051;-75
2021/01/30 22:19:40;;;;;;;11.00;9.43;;;;;;;1.10;100.00;99370.19;10258935;29;20047;-75
2021/01/30 22:24:41;;;;;;;11.82;9.60;;;;;;;1.09;100.00;99384.91;10258778;29;20043;-76
2021/01/30 22:29:43;;;;;;;12.90;10.50;;;;;;;1.06;100.00;99397.97;10259667;28;20484;-75
2021/01/30 22:34:44;;;;;;;12.90;9.95;;;;;;;0.99;100.00;99390.38;10241630;29;20043;-75
2021/01/30 22:39:45;;;;;;;11.98;8.88;;;;;;;1.04;100.00;99401.47;10244414;29;20062;-75
2021/01/30 22:44:49;;;;;;;38.40;27.40;;;;;;;0.97;100.00;99400.78;10261868;29;20228;-75
2021/01/30 22:49:50;;;;;;;19.65;17.40;;;;;;;0.96;100.00;99414.63;10263302;28;20047;-75
2021/01/30 22:54:51;;;;;;;12.55;9.75;;;;;;;0.87;100.00;99408.81;10262516;29;20051;-75
2021/01/30 22:59:52;;;;;;;11.85;9.65;;;;;;;0.90;100.00;99414.78;10261696;29;20043;-76
2021/01/30 23:04:54;;;;;;;14.95;11.95;;;;;;;0.85;100.00;99421.81;10259240;29;20488;-75
2021/01/30 23:09:55;;;;;;;154.07;85.50;;;;;;;0.79;100.00;99432.31;10240662;29;20055;-75
2021/01/30 23:14:56;;;;;;;78.18;52.15;;;;;;;0.83;100.00;99440.91;10257700;29;20051;-75
2021/01/30 23:19:57;;;;;;;220.40;129.27;;;;;;;0.72;100.00;99434.22;10255866;28;20073;-75